Time;durP1;ratioP1;P1;durP2;ratioP2;P2;SDS_P1;SDS_P2;PMS_P1;PMS_P2;Temp;Humidity;BMP_temperature;BMP_pressure;BME280_temperature;BME280_humidity;BME280_pressure;Samples;Min_cycle;Max_cycle;Signal;HPM_P1;HPM_P2
2023/01/18 00:00:27;;;;;;;6.97;4.20;;;-1.20;99.90;;;;;;4995245;28;20170;-83
2023/01/18 00:02:53;;;;;;;5.27;3.80;;;-1.30;99.90;;;;;;4995767;28;20214;-82
2023/01/18 00:05:23;;;;;;;5.03;3.80;;;-1.30;99.90;;;;;;4976957;28;20661;-83
2023/01/18 00:07:49;;;;;;;5.80;3.90;;;-1.30;99.90;;;;;;4977842;28;20200;-83
2023/01/18 00:10:15;;;;;;;7.23;4.10;;;-1.20;99.90;;;;;;4977857;28;20199;-83
2023/01/18 00:12:40;;;;;;;6.30;4.30;;;-1.20;99.90;;;;;;4977652;28;20560;-83
2023/01/18 00:15:07;;;;;;;5.00;3.70;;;-1.10;99.90;;;;;;4995325;28;20264;-83
2023/01/18 00:17:32;;;;;;;6.77;3.60;;;-1.10;99.90;;;;;;4995312;28;20181;-83
2023/01/18 00:19:58;;;;;;;5.23;3.70;;;-1.20;99.90;;;;;;4983481;28;20208;-83
2023/01/18 00:22:24;;;;;;;4.90;3.90;;;-1.20;99.90;;;;;;4981751;28;20189;-83
2023/01/18 00:24:49;;;;;;;5.13;3.90;;;-1.20;99.90;;;;;;4996463;28;20182;-83
2023/01/18 00:27:15;;;;;;;6.10;3.77;;;-1.30;99.90;;;;;;4996362;28;20711;-83
2023/01/18 00:29:40;;;;;;;5.10;4.00;;;-1.20;99.90;;;;;;4995864;28;20203;-83
2023/01/18 00:32:06;;;;;;;6.63;3.90;;;-1.30;99.90;;;;;;4979802;28;20214;-83
2023/01/18 00:34:32;;;;;;;6.27;4.20;;;-1.30;99.90;;;;;;4997783;28;20180;-83
2023/01/18 00:36:57;;;;;;;8.33;4.50;;;-1.30;99.90;;;;;;4978835;28;20205;-83
2023/01/18 00:39:23;;;;;;;7.07;4.00;;;-1.20;99.90;;;;;;4979566;28;20546;-83
2023/01/18 00:44:32;;;;;;;7.17;4.10;;;-1.30;99.90;;;;;;4996735;28;20210;-83
2023/01/18 00:46:58;;;;;;;6.10;4.47;;;-1.20;99.90;;;;;;4979736;28;20647;-82
2023/01/18 00:49:23;;;;;;;5.03;3.93;;;-1.20;99.90;;;;;;4997509;28;20555;-83
2023/01/18 00:51:51;;;;;;;7.00;4.47;;;-1.20;99.90;;;;;;4979553;28;20626;-82
2023/01/18 00:54:17;;;;;;;7.10;4.40;;;-1.20;99.90;;;;;;4997732;28;20196;-83
2023/01/18 00:56:43;;;;;;;6.10;4.37;;;-1.10;99.90;;;;;;4979940;28;20179;-83
2023/01/18 00:59:08;;;;;;;7.17;4.43;;;-1.10;99.90;;;;;;4997409;28;20244;-83
2023/01/18 01:01:34;;;;;;;8.00;4.53;;;-1.10;99.90;;;;;;4998136;28;20173;-83
2023/01/18 01:06:44;;;;;;;5.53;4.17;;;-1.10;99.90;;;;;;4997938;28;20667;-83
2023/01/18 01:09:19;;;;;;;5.63;4.00;;;-1.20;99.90;;;;;;4997695;28;20200;-83
2023/01/18 01:28:12;;;;;;;6.57;4.53;;;-1.00;99.90;;;;;;4993631;28;20220;-84
2023/01/18 01:30:38;;;;;;;6.43;4.53;;;-0.90;99.90;;;;;;4978014;28;20184;-84
2023/01/18 01:33:03;;;;;;;8.13;4.77;;;-0.90;99.90;;;;;;4987830;28;20701;-84
2023/01/18 01:35:29;;;;;;;8.03;4.67;;;-0.90;99.90;;;;;;4993310;28;20177;-84
2023/01/18 01:37:55;;;;;;;7.03;4.17;;;-0.90;99.90;;;;;;4975847;28;20181;-84
2023/01/18 01:40:20;;;;;;;8.13;4.97;;;-0.80;99.90;;;;;;4975557;28;20180;-84
2023/01/18 01:42:46;;;;;;;6.13;4.27;;;-0.90;99.90;;;;;;4975682;28;20181;-84
2023/01/18 01:45:11;;;;;;;7.40;5.00;;;-0.80;99.90;;;;;;4993183;28;20181;-83
2023/01/18 01:47:41;;;;;;;8.60;4.83;;;-0.80;99.90;;;;;;4975744;28;20164;-84
2023/01/18 01:50:26;;;;;;;6.87;4.53;;;-0.80;99.90;;;;;;4975206;28;20181;-83
2023/01/18 01:52:53;;;;;;;6.33;4.47;;;-0.80;99.90;;;;;;4975318;28;20228;-85
2023/01/18 01:55:27;;;;;;;8.90;4.80;;;-0.80;99.90;;;;;;4975648;28;20182;-83
2023/01/18 01:58:04;;;;;;;6.37;4.47;;;-0.80;99.90;;;;;;4992862;28;20178;-84
2023/01/18 02:00:31;;;;;;;5.83;4.70;;;-0.80;99.90;;;;;;4992618;28;20185;-83
2023/01/18 02:03:03;;;;;;;6.13;4.70;;;-0.70;99.90;;;;;;4992894;28;20201;-83
2023/01/18 02:05:32;;;;;;;8.30;4.57;;;-0.70;99.90;;;;;;4975056;28;20181;-84
2023/01/18 02:08:00;;;;;;;7.77;4.80;;;-0.70;99.90;;;;;;4975390;28;20665;-83
2023/01/18 02:10:26;;;;;;;7.90;4.90;;;-0.70;99.90;;;;;;4975306;28;20182;-84
2023/01/18 02:12:53;;;;;;;8.23;4.63;;;-0.70;99.90;;;;;;4977920;28;20223;-84
2023/01/18 02:15:30;;;;;;;8.17;5.53;;;-0.60;99.90;;;;;;4975245;28;20185;-84
2023/01/18 02:18:14;;;;;;;7.57;4.93;;;-0.60;99.90;;;;;;4975372;28;20181;-85
2023/01/18 02:21:05;;;;;;;8.07;4.83;;;-0.70;99.90;;;;;;4975120;28;20776;-83
2023/01/18 02:23:51;;;;;;;7.30;4.33;;;-0.70;99.90;;;;;;4975118;28;20739;-83
2023/01/18 02:26:26;;;;;;;6.43;4.50;;;-0.70;99.90;;;;;;4975080;28;20711;-84
2023/01/18 02:29:06;;;;;;;7.60;4.53;;;-0.60;99.90;;;;;;4995777;28;20252;-83
2023/01/18 02:31:39;;;;;;;6.77;4.50;;;-0.70;99.90;;;;;;4996405;28;20223;-83
2023/01/18 02:34:23;;;;;;;8.53;4.83;;;-0.70;99.90;;;;;;4996173;28;20252;-83
2023/01/18 02:37:08;;;;;;;7.03;4.43;;;-0.70;99.90;;;;;;4996405;28;20182;-84
2023/01/18 02:39:49;;;;;;;6.60;4.37;;;-0.60;99.90;;;;;;4979256;28;20283;-84
2023/01/18 02:48:07;;;;;;;7.97;4.83;;;-0.60;99.90;;;;;;4992508;28;20184;-83
2023/01/18 02:50:32;;;;;;;6.90;4.83;;;-0.50;99.90;;;;;;4978516;28;20179;-83
2023/01/18 02:52:58;;;;;;;9.57;4.73;;;-0.60;99.90;;;;;;4979016;28;20202;-84
2023/01/18 02:55:23;;;;;;;7.57;4.63;;;-0.60;99.90;;;;;;4996041;28;20185;-84
2023/01/18 02:57:50;;;;;;;7.43;4.93;;;-0.60;99.90;;;;;;4995895;28;20173;-83
2023/01/18 03:00:17;;;;;;;6.23;4.50;;;-0.60;99.90;;;;;;4978527;28;20214;-83
2023/01/18 03:02:46;;;;;;;8.00;5.07;;;-0.70;99.90;;;;;;4978448;28;20262;-84
2023/01/18 03:05:12;;;;;;;6.53;5.07;;;-0.60;99.90;;;;;;4978356;28;20706;-83
2023/01/18 03:07:52;;;;;;;7.53;5.60;;;-0.60;99.90;;;;;;4978622;28;20175;-84
2023/01/18 03:10:18;;;;;;;7.00;5.20;;;-0.70;99.90;;;;;;4978371;28;20612;-83
2023/01/18 03:13:00;;;;;;;6.73;4.77;;;-0.70;99.90;;;;;;4995654;28;20534;-84
2023/01/18 03:15:43;;;;;;;6.83;5.03;;;-0.70;99.90;;;;;;4978266;28;20182;-83
2023/01/18 03:18:19;;;;;;;7.40;4.73;;;-0.70;99.90;;;;;;4995667;28;20645;-83
2023/01/18 03:20:54;;;;;;;7.43;4.63;;;-0.60;99.90;;;;;;4978179;28;20178;-83
2023/01/18 03:23:40;;;;;;;6.87;4.33;;;-0.60;99.90;;;;;;4995588;28;20751;-84
2023/01/18 03:26:17;;;;;;;6.50;4.47;;;-0.70;99.90;;;;;;4995423;28;20523;-85
2023/01/18 03:34:31;;;;;;;6.30;4.90;;;-0.60;99.90;;;;;;4995590;28;20209;-83
2023/01/18 03:37:01;;;;;;;7.50;4.60;;;-0.50;99.90;;;;;;4995304;28;20185;-84
2023/01/18 03:39:32;;;;;;;7.30;4.40;;;-0.60;99.90;;;;;;4976413;28;20205;-83
2023/01/18 03:42:31;;;;;;;6.33;4.63;;;-0.50;99.90;;;;;;4977796;28;20579;-83
2023/01/18 03:45:09;;;;;;;8.37;4.60;;;-0.60;99.90;;;;;;4983601;28;20229;-83
2023/01/18 03:47:35;;;;;;;6.87;4.93;;;-0.60;99.90;;;;;;4975696;28;20206;-83
2023/01/18 03:50:01;;;;;;;6.30;4.27;;;-0.60;99.90;;;;;;4974518;28;20183;-83
2023/01/18 03:52:43;;;;;;;7.43;4.60;;;-0.50;99.90;;;;;;4958344;28;20190;-83
2023/01/18 03:55:22;;;;;;;6.73;4.70;;;-0.50;99.90;;;;;;4975509;28;20197;-83
2023/01/18 03:57:57;;;;;;;6.00;4.43;;;-0.50;99.90;;;;;;4958213;28;20179;-83
2023/01/18 04:00:23;;;;;;;8.10;4.67;;;-0.50;99.90;;;;;;4975424;28;20194;-84
2023/01/18 04:02:49;;;;;;;6.40;4.33;;;-0.50;99.90;;;;;;4958147;28;20200;-84
2023/01/18 04:05:15;;;;;;;6.83;4.70;;;-0.40;99.90;;;;;;4958129;28;20640;-83
2023/01/18 04:07:41;;;;;;;6.83;4.67;;;-0.40;99.90;;;;;;4958100;28;20182;-83
2023/01/18 04:10:08;;;;;;;5.93;4.10;;;-0.40;99.90;;;;;;4975261;28;20186;-84
2023/01/18 04:12:33;;;;;;;6.40;4.00;;;-0.40;99.90;;;;;;4957599;28;20226;-84
2023/01/18 04:14:59;;;;;;;6.40;4.30;;;-0.30;99.90;;;;;;4975262;28;20207;-84
2023/01/18 04:17:25;;;;;;;6.70;4.23;;;-0.30;99.90;;;;;;4957874;28;20183;-83
2023/01/18 04:19:51;;;;;;;7.73;4.30;;;-0.30;99.90;;;;;;4974809;28;20214;-84
2023/01/18 04:22:17;;;;;;;7.73;4.60;;;-0.30;99.90;;;;;;4957788;28;20199;-83
2023/01/18 04:24:42;;;;;;;6.57;4.53;;;-0.30;99.90;;;;;;4957543;28;20200;-84
2023/01/18 04:27:08;;;;;;;7.20;6.33;;;-0.20;99.90;;;;;;4957888;28;20572;-83
2023/01/18 04:29:34;;;;;;;6.03;4.20;;;-0.20;99.90;;;;;;4957665;28;20219;-83
2023/01/18 04:31:59;;;;;;;7.47;4.33;;;-0.20;99.90;;;;;;4957362;28;20239;-83
2023/01/18 04:34:25;;;;;;;6.67;4.07;;;-0.30;99.90;;;;;;4957444;28;20231;-83
2023/01/18 04:36:51;;;;;;;5.83;4.13;;;-0.30;99.90;;;;;;4973405;28;20275;-83
2023/01/18 04:39:17;;;;;;;7.00;3.97;;;-0.30;99.90;;;;;;4957431;28;20214;-83
2023/01/18 04:41:43;;;;;;;6.07;4.30;;;-0.30;99.90;;;;;;4957165;28;20661;-84
2023/01/18 04:44:09;;;;;;;7.63;4.20;;;-0.20;99.90;;;;;;4957266;28;20335;-83
2023/01/18 04:46:37;;;;;;;6.03;4.23;;;-0.30;99.90;;;;;;4974590;28;20267;-83
2023/01/18 04:49:08;;;;;;;5.07;3.70;;;-0.30;99.90;;;;;;4974605;28;20189;-83
2023/01/18 04:51:34;;;;;;;5.40;3.67;;;-0.30;99.90;;;;;;4956720;28;20187;-81
2023/01/18 04:54:00;;;;;;;6.83;4.30;;;-0.30;99.90;;;;;;4993523;28;20229;-83
2023/01/18 04:56:26;;;;;;;8.23;3.90;;;-0.30;99.90;;;;;;5000977;28;20185;-83
2023/01/18 04:58:53;;;;;;;5.73;4.20;;;-0.40;99.90;;;;;;4977812;28;20209;-83
2023/01/18 05:01:19;;;;;;;5.70;3.73;;;-0.40;99.90;;;;;;4994177;28;20208;-83
2023/01/18 05:03:45;;;;;;;6.50;4.40;;;-0.40;99.90;;;;;;4976854;28;20201;-83
2023/01/18 05:06:13;;;;;;;6.17;3.90;;;-0.40;99.90;;;;;;4976661;28;20178;-83
2023/01/18 05:08:42;;;;;;;6.50;3.97;;;-0.40;99.90;;;;;;4988735;28;20209;-83
2023/01/18 05:11:13;;;;;;;6.57;4.10;;;-0.40;99.90;;;;;;4997452;28;20190;-83
2023/01/18 05:13:39;;;;;;;7.27;4.27;;;-0.40;99.90;;;;;;4976421;28;20215;-83
2023/01/18 05:16:07;;;;;;;6.60;4.13;;;-0.40;99.90;;;;;;4976444;28;20202;-83
2023/01/18 05:18:32;;;;;;;6.43;4.30;;;-0.40;99.90;;;;;;4981010;28;20267;-83
2023/01/18 05:20:58;;;;;;;7.00;3.73;;;-0.30;99.90;;;;;;4976105;28;20203;-83
2023/01/18 05:23:24;;;;;;;5.90;4.07;;;-0.30;99.90;;;;;;4976382;28;20201;-83
2023/01/18 05:25:56;;;;;;;6.33;4.17;;;-0.20;99.90;;;;;;4976626;28;20267;-83
2023/01/18 05:28:24;;;;;;;5.70;4.40;;;-0.20;99.90;;;;;;4993592;28;20183;-83
2023/01/18 05:30:50;;;;;;;6.77;3.90;;;-0.20;99.90;;;;;;4993822;28;20182;-83
2023/01/18 05:33:19;;;;;;;5.27;3.80;;;-0.20;99.90;;;;;;4976070;28;20231;-83
2023/01/18 05:35:53;;;;;;;6.43;3.97;;;-0.20;99.90;;;;;;4976198;28;20569;-84
2023/01/18 05:38:19;;;;;;;6.07;3.87;;;-0.20;99.90;;;;;;4976420;28;20183;-83
2023/01/18 05:40:48;;;;;;;6.50;3.53;;;-0.20;99.90;;;;;;4975968;28;20270;-84
2023/01/18 05:43:15;;;;;;;6.80;4.17;;;-0.20;99.90;;;;;;4976190;28;20543;-83
2023/01/18 05:45:41;;;;;;;4.90;3.53;;;-0.10;99.90;;;;;;4993614;28;20180;-83
2023/01/18 05:48:08;;;;;;;5.60;3.23;;;-0.10;99.90;;;;;;4993594;28;20183;-83
2023/01/18 05:50:33;;;;;;;5.87;3.90;;;-0.10;99.90;;;;;;4993428;28;20179;-83
2023/01/18 05:52:59;;;;;;;5.63;3.80;;;-0.10;99.90;;;;;;4976158;28;20260;-81
2023/01/18 05:55:26;;;;;;;5.23;3.67;;;-0.20;99.90;;;;;;4975834;28;20191;-83
2023/01/18 05:57:52;;;;;;;4.90;3.77;;;-0.10;99.90;;;;;;4976162;28;20214;-83
2023/01/18 06:00:18;;;;;;;5.90;3.60;;;-0.10;99.90;;;;;;4975974;28;20297;-82
2023/01/18 06:02:43;;;;;;;5.63;3.83;;;-0.10;99.90;;;;;;4992359;28;20644;-83
2023/01/18 06:05:10;;;;;;;5.33;3.73;;;-0.10;99.90;;;;;;4975738;28;20179;-83
2023/01/18 06:07:36;;;;;;;6.63;3.80;;;-0.10;99.90;;;;;;4993060;28;20171;-84
2023/01/18 06:10:02;;;;;;;6.53;3.90;;;-0.10;99.90;;;;;;4976309;28;20187;-81
2023/01/18 06:12:27;;;;;;;7.00;4.07;;;-0.10;99.90;;;;;;4993885;28;20183;-81
2023/01/18 06:14:53;;;;;;;7.03;4.00;;;-0.10;99.90;;;;;;4993864;28;20198;-82
2023/01/18 06:17:18;;;;;;;6.57;4.03;;;0.00;99.90;;;;;;4976389;28;20179;-81
2023/01/18 06:19:44;;;;;;;6.33;4.17;;;0.00;99.90;;;;;;4993606;28;20197;-81
2023/01/18 06:22:09;;;;;;;7.27;4.67;;;0.00;99.90;;;;;;4994109;28;20182;-81
2023/01/18 06:24:35;;;;;;;5.87;4.50;;;0.00;99.90;;;;;;4976285;28;20198;-81
2023/01/18 06:27:02;;;;;;;8.43;4.03;;;0.00;99.90;;;;;;4993933;28;20585;-81
2023/01/18 06:29:28;;;;;;;8.00;5.10;;;0.00;99.90;;;;;;4975948;28;20607;-81
2023/01/18 06:31:54;;;;;;;6.63;4.37;;;0.00;99.90;;;;;;4993303;28;20186;-80
2023/01/18 06:34:19;;;;;;;7.40;4.90;;;0.00;99.90;;;;;;4976040;28;20673;-81
2023/01/18 06:36:45;;;;;;;5.90;4.13;;;0.00;99.90;;;;;;4975819;28;20182;-81
2023/01/18 06:39:10;;;;;;;7.53;4.50;;;0.00;99.90;;;;;;4994146;28;20203;-81
2023/01/18 06:41:36;;;;;;;8.27;5.00;;;0.00;99.90;;;;;;4976274;28;20190;-81
2023/01/18 06:44:02;;;;;;;7.40;4.70;;;0.00;99.90;;;;;;4976028;28;20204;-81
2023/01/18 06:46:28;;;;;;;6.00;4.40;;;0.00;99.90;;;;;;4976231;28;20187;-81
2023/01/18 06:48:53;;;;;;;6.90;4.23;;;0.00;99.90;;;;;;4976117;28;20294;-81
2023/01/18 06:51:20;;;;;;;7.93;3.73;;;0.00;99.90;;;;;;4993445;28;20182;-80
2023/01/18 06:53:46;;;;;;;8.43;5.03;;;0.60;99.90;;;;;;4975582;28;20202;-82
2023/01/18 06:56:13;;;;;;;7.33;5.10;;;1.30;99.90;;;;;;4993621;28;20250;-80
2023/01/18 06:58:39;;;;;;;6.17;4.20;;;1.70;99.90;;;;;;4993114;28;20702;-79
2023/01/18 07:01:05;;;;;;;7.17;4.67;;;1.90;99.90;;;;;;4976135;28;20234;-83
2023/01/18 07:03:31;;;;;;;6.67;4.53;;;2.20;99.90;;;;;;4977008;28;20191;-83
2023/01/18 07:05:59;;;;;;;6.00;4.10;;;2.10;99.90;;;;;;4976517;28;20246;-83
2023/01/18 07:08:25;;;;;;;5.60;4.27;;;1.80;99.90;;;;;;4994042;28;20191;-83
2023/01/18 07:10:52;;;;;;;6.40;4.27;;;1.50;99.90;;;;;;4994249;28;20179;-83
2023/01/18 07:13:18;;;;;;;6.63;4.47;;;1.10;99.90;;;;;;5051433;22;20213;-83
2023/01/18 07:15:43;;;;;;;6.37;4.47;;;0.90;99.90;;;;;;5020028;28;20654;-86
2023/01/18 07:18:09;;;;;;;6.73;4.50;;;0.60;99.90;;;;;;5038381;28;20178;-86
2023/01/18 07:20:35;;;;;;;7.20;4.60;;;0.50;99.90;;;;;;5022543;28;20563;-86
2023/01/18 07:23:01;;;;;;;6.30;4.67;;;0.50;99.90;;;;;;5025467;28;20186;-85
2023/01/18 07:25:28;;;;;;;6.23;4.60;;;0.40;99.90;;;;;;5042464;28;20178;-83
2023/01/18 07:27:56;;;;;;;6.33;4.83;;;0.40;99.90;;;;;;5022205;28;20185;-83
2023/01/18 07:30:22;;;;;;;7.40;4.80;;;0.40;99.90;;;;;;5040472;28;20448;-84
2023/01/18 07:32:50;;;;;;;7.33;4.60;;;0.30;99.90;;;;;;5043290;28;20175;-84
2023/01/18 07:35:17;;;;;;;7.57;4.57;;;0.20;99.90;;;;;;5042509;28;20577;-84
2023/01/18 07:37:48;;;;;;;7.53;5.07;;;0.20;99.90;;;;;;5043590;28;20592;-85
2023/01/18 07:40:14;;;;;;;7.67;4.93;;;0.20;99.90;;;;;;5025339;28;20204;-85
2023/01/18 07:42:40;;;;;;;7.90;4.97;;;0.20;99.90;;;;;;5042321;28;20641;-84
2023/01/18 07:45:07;;;;;;;7.77;5.00;;;0.20;99.90;;;;;;5024811;28;20201;-84
2023/01/18 07:47:34;;;;;;;7.37;4.90;;;0.20;99.90;;;;;;5042427;28;20510;-84
2023/01/18 07:50:00;;;;;;;7.43;4.43;;;0.20;99.90;;;;;;5043599;28;20178;-84
2023/01/18 07:52:26;;;;;;;6.57;4.57;;;0.20;99.90;;;;;;5040882;28;20248;-84
2023/01/18 07:54:51;;;;;;;19.27;12.90;;;0.20;99.90;;;;;;5035575;28;20229;-83
2023/01/18 07:57:17;;;;;;;23.43;16.33;;;0.20;99.90;;;;;;5007614;28;20182;-83
2023/01/18 07:59:43;;;;;;;15.57;11.23;;;0.20;99.90;;;;;;4997140;28;20210;-84
2023/01/18 08:02:11;;;;;;;21.20;16.10;;;0.20;99.90;;;;;;5014824;28;20187;-84
2023/01/18 08:04:38;;;;;;;7.50;4.93;;;0.20;99.90;;;;;;4997194;28;20202;-84
2023/01/18 08:07:04;;;;;;;7.03;4.63;;;0.20;99.90;;;;;;4997088;28;20179;-83
2023/01/18 08:09:32;;;;;;;7.27;4.70;;;0.20;99.90;;;;;;4996872;28;20197;-84
2023/01/18 08:11:58;;;;;;;6.97;4.63;;;0.30;99.90;;;;;;5001728;28;20183;-84
2023/01/18 08:14:24;;;;;;;5.90;4.20;;;0.30;99.90;;;;;;5015266;28;20240;-83
2023/01/18 08:16:50;;;;;;;8.10;4.63;;;0.30;99.90;;;;;;5035877;28;20536;-84
2023/01/18 08:19:16;;;;;;;7.13;4.33;;;0.30;99.90;;;;;;5013807;28;20195;-84
2023/01/18 08:21:41;;;;;;;7.00;4.63;;;0.30;99.90;;;;;;5042054;28;20173;-85
2023/01/18 08:24:07;;;;;;;7.17;4.30;;;0.40;99.90;;;;;;5023635;28;20198;-84
2023/01/18 08:26:33;;;;;;;7.07;4.20;;;0.40;99.90;;;;;;5020463;28;20223;-83
2023/01/18 08:28:59;;;;;;;7.67;4.27;;;0.40;99.90;;;;;;5035042;28;20186;-84
2023/01/18 08:31:25;;;;;;;5.70;4.10;;;0.40;99.90;;;;;;5033974;28;20611;-83
2023/01/18 08:33:51;;;;;;;5.87;4.00;;;0.40;99.90;;;;;;5016859;28;20684;-84
2023/01/18 08:36:20;;;;;;;8.27;4.10;;;0.40;99.90;;;;;;5034696;28;20177;-84
2023/01/18 08:38:54;;;;;;;5.90;3.60;;;0.40;99.90;;;;;;5035505;28;20206;-83
2023/01/18 08:41:21;;;;;;;6.47;3.70;;;0.50;99.90;;;;;;5034780;28;20166;-83
2023/01/18 08:43:51;;;;;;;7.13;4.10;;;0.60;99.90;;;;;;5016752;28;20197;-84
2023/01/18 08:46:17;;;;;;;7.27;4.00;;;0.60;99.90;;;;;;5033962;28;20229;-83
2023/01/18 08:48:43;;;;;;;5.67;3.67;;;0.70;99.90;;;;;;5010483;28;20648;-83
2023/01/18 08:51:08;;;;;;;4.93;3.57;;;0.70;99.90;;;;;;5036486;28;20174;-82
2023/01/18 08:53:34;;;;;;;6.93;4.13;;;0.70;99.90;;;;;;5035616;28;20766;-83
2023/01/18 08:56:03;;;;;;;5.60;3.70;;;0.70;99.90;;;;;;5035425;28;20171;-82
2023/01/18 08:58:31;;;;;;;5.37;3.40;;;0.80;99.90;;;;;;5035662;28;20200;-82
2023/01/18 09:00:56;;;;;;;4.90;3.43;;;0.90;99.90;;;;;;5017897;28;20228;-83
2023/01/18 09:03:22;;;;;;;7.73;4.00;;;1.10;99.90;;;;;;5035580;28;20288;-83
2023/01/18 09:05:49;;;;;;;6.23;4.13;;;1.10;99.90;;;;;;5017311;28;20554;-84
2023/01/18 09:08:15;;;;;;;4.93;3.50;;;1.00;99.90;;;;;;5035326;28;20181;-84
2023/01/18 09:10:41;;;;;;;7.40;4.50;;;1.00;99.90;;;;;;5016359;28;20174;-84
2023/01/18 09:13:06;;;;;;;5.53;3.63;;;1.10;99.90;;;;;;5017012;28;20192;-85
2023/01/18 09:15:33;;;;;;;10.33;7.23;;;1.10;99.90;;;;;;5017636;28;20205;-85
2023/01/18 09:18:03;;;;;;;15.17;10.33;;;1.10;99.90;;;;;;5036106;28;20174;-83
2023/01/18 09:20:29;;;;;;;6.10;4.17;;;1.10;99.90;;;;;;5035507;28;20284;-84
2023/01/18 09:22:54;;;;;;;5.63;3.83;;;1.10;99.90;;;;;;5011318;28;20202;-83
2023/01/18 09:25:20;;;;;;;6.53;3.50;;;1.20;99.90;;;;;;5025881;28;20206;-84
2023/01/18 09:27:46;;;;;;;14.40;9.37;;;1.30;99.90;;;;;;5012926;28;20163;-84
2023/01/18 09:30:14;;;;;;;5.43;3.50;;;1.30;99.90;;;;;;5014898;28;20197;-84
2023/01/18 09:32:41;;;;;;;5.13;3.40;;;1.40;99.90;;;;;;5035815;28;20169;-84
2023/01/18 09:35:07;;;;;;;4.43;3.00;;;1.50;99.90;;;;;;5018070;28;20252;-83
2023/01/18 09:37:33;;;;;;;4.60;2.90;;;1.50;99.90;;;;;;5035557;28;20166;-84
2023/01/18 09:39:59;;;;;;;4.70;2.93;;;1.60;99.90;;;;;;5018192;28;20206;-84
2023/01/18 09:42:32;;;;;;;3.77;2.73;;;1.60;99.90;;;;;;5036971;28;20249;-84
2023/01/18 09:44:59;;;;;;;3.47;2.60;;;1.60;99.90;;;;;;5019142;28;20195;-82
2023/01/18 09:47:33;;;;;;;3.10;2.37;;;1.60;99.90;;;;;;5018514;28;20175;-83
2023/01/18 09:50:17;;;;;;;4.93;2.90;;;1.60;99.90;;;;;;5019227;28;20241;-82
2023/01/18 09:52:57;;;;;;;4.33;2.40;;;1.60;99.90;;;;;;5019734;28;20178;-82
2023/01/18 09:55:40;;;;;;;6.37;2.70;;;1.60;99.90;;;;;;5019229;28;20178;-83
2023/01/18 09:58:30;;;;;;;3.13;2.30;;;1.70;99.90;;;;;;5037690;28;20178;-83
2023/01/18 10:01:15;;;;;;;3.67;2.40;;;1.70;99.90;;;;;;5037055;28;20229;-83
2023/01/18 10:03:58;;;;;;;3.27;2.30;;;1.70;99.90;;;;;;5037703;28;20191;-83
2023/01/18 10:06:47;;;;;;;4.13;2.33;;;1.70;99.90;;;;;;5038087;28;20649;-82
2023/01/18 10:09:27;;;;;;;5.20;3.27;;;1.70;99.90;;;;;;5020195;28;20207;-85
2023/01/18 10:12:01;;;;;;;6.57;3.70;;;1.70;99.90;;;;;;5038627;28;20193;-83
2023/01/18 10:14:52;;;;;;;2.67;2.03;;;1.80;99.90;;;;;;5020568;28;20645;-81
2023/01/18 10:17:24;;;;;;;8.90;2.73;;;1.80;99.90;;;;;;5038034;28;20166;-81
2023/01/18 10:19:50;;;;;;;8.40;5.07;;;1.80;99.90;;;;;;5035889;28;20607;-83
2023/01/18 10:22:28;;;;;;;4.50;2.00;;;1.80;99.90;;;;;;5036342;28;20174;-82
2023/01/18 10:25:13;;;;;;;15.53;10.30;;;1.90;99.90;;;;;;5036969;28;20190;-82
2023/01/18 10:27:39;;;;;;;6.13;3.33;;;1.80;99.90;;;;;;5024536;28;20206;-82
2023/01/18 10:30:48;;;;;;;3.80;2.27;;;1.80;99.90;;;;;;4998729;28;20187;-83
2023/01/18 10:33:20;;;;;;;2.37;1.90;;;1.90;99.90;;;;;;4990281;28;20211;-82
2023/01/18 10:35:49;;;;;;;3.30;1.70;;;1.90;99.90;;;;;;4999355;28;20214;-81
2023/01/18 10:38:22;;;;;;;5.43;1.90;;;2.00;99.90;;;;;;5002499;28;20183;-81
2023/01/18 10:40:54;;;;;;;2.27;1.70;;;2.00;99.90;;;;;;5008538;28;20175;-82
2023/01/18 10:43:23;;;;;;;4.70;1.80;;;2.00;99.90;;;;;;5014687;28;20192;-82
2023/01/18 10:45:52;;;;;;;7.90;5.70;;;1.90;99.90;;;;;;5032157;28;20195;-81
2023/01/18 10:48:28;;;;;;;4.10;1.80;;;1.90;99.90;;;;;;5014751;28;20585;-82
2023/01/18 10:51:00;;;;;;;3.87;1.57;;;2.00;99.90;;;;;;5036559;28;20183;-82
2023/01/18 10:53:26;;;;;;;2.63;1.80;;;2.00;99.90;;;;;;5009535;28;20563;-82
2023/01/18 10:55:54;;;;;;;2.30;1.57;;;2.10;99.90;;;;;;5010203;28;20170;-81
2023/01/18 10:58:30;;;;;;;2.27;1.60;;;2.10;99.90;;;;;;5015868;28;20265;-81
2023/01/18 11:00:56;;;;;;;2.47;1.70;;;2.00;99.90;;;;;;5023841;28;20170;-82
2023/01/18 11:03:25;;;;;;;3.77;1.90;;;2.00;99.90;;;;;;5015365;28;20226;-83
2023/01/18 11:05:51;;;;;;;4.97;1.63;;;1.90;99.90;;;;;;5017445;28;20171;-82
2023/01/18 11:08:33;;;;;;;3.00;1.50;;;2.00;99.90;;;;;;5035117;28;20189;-81
2023/01/18 11:10:58;;;;;;;3.13;1.67;;;1.90;99.90;;;;;;5017000;28;20180;-80
2023/01/18 11:13:28;;;;;;;2.97;1.90;;;1.90;99.90;;;;;;5035583;28;20668;-80
2023/01/18 11:16:05;;;;;;;1.50;1.40;;;2.00;99.90;;;;;;5018063;28;20170;-80
2023/01/18 11:18:30;;;;;;;3.03;1.50;;;2.10;99.90;;;;;;5018369;28;20166;-81
2023/01/18 11:20:56;;;;;;;1.67;1.57;;;2.30;99.90;;;;;;5035818;28;20301;-79
2023/01/18 11:23:30;;;;;;;2.10;1.40;;;2.50;99.90;;;;;;5035579;28;20199;-80
2023/01/18 11:26:00;;;;;;;2.20;1.50;;;2.60;99.90;;;;;;5036221;28;20175;-79
2023/01/18 11:29:00;;;;;;;3.03;1.70;;;2.90;99.90;;;;;;5035773;28;20213;-80
2023/01/18 11:31:31;;;;;;;3.10;1.63;;;3.00;99.90;;;;;;5003186;28;20184;-81
2023/01/18 11:34:00;;;;;;;2.97;1.43;;;3.00;99.90;;;;;;5036172;28;20222;-81
2023/01/18 11:36:41;;;;;;;1.60;1.50;;;3.10;99.90;;;;;;5036264;28;20184;-79
2023/01/18 11:39:31;;;;;;;2.13;1.30;;;3.20;99.90;;;;;;5018250;28;20209;-80
2023/01/18 11:42:29;;;;;;;2.90;1.40;;;3.60;99.90;;;;;;5036102;28;20180;-79
2023/01/18 11:45:21;;;;;;;4.73;3.67;;;3.70;99.90;;;;;;5036072;28;20246;-79
2023/01/18 11:48:13;;;;;;;2.13;1.37;;;4.00;99.90;;;;;;5018561;28;20177;-80
2023/01/18 11:50:44;;;;;;;2.40;1.70;;;4.00;99.90;;;;;;5013473;28;20659;-79
2023/01/18 11:53:16;;;;;;;1.70;1.43;;;4.20;99.90;;;;;;5018182;28;20180;-80
2023/01/18 11:56:05;;;;;;;2.30;1.33;;;4.30;99.90;;;;;;5009167;28;20182;-80
2023/01/18 11:58:32;;;;;;;2.97;1.43;;;4.20;99.90;;;;;;5027577;28;20230;-81
2023/01/18 12:01:20;;;;;;;2.97;1.30;;;3.90;99.90;;;;;;5033517;28;20666;-79
2023/01/18 12:04:16;;;;;;;496.47;196.37;;;3.80;99.90;;;;;;5017313;28;20212;-78
2023/01/18 12:06:53;;;;;;;174.83;65.27;;;5.70;99.90;;;;;;5029821;28;20199;-79
2023/01/18 12:09:31;;;;;;;94.60;38.77;;;7.30;99.90;;;;;;5032165;28;20175;-78
2023/01/18 12:12:23;;;;;;;50.83;22.37;;;8.30;99.90;;;;;;5034278;28;20176;-78
2023/01/18 12:15:23;;;;;;;34.17;14.30;;;9.80;99.90;;;;;;5016234;28;20306;-79
2023/01/18 12:18:10;;;;;;;22.30;9.33;;;10.40;99.90;;;;;;5035160;28;20186;-77
2023/01/18 12:20:48;;;;;;;2.53;1.43;;;11.20;99.90;;;;;;5005452;28;20202;-82
2023/01/18 12:24:10;;;;;;;2.10;1.77;;;10.30;88.50;;;;;;5010103;28;20188;-83
2023/01/18 12:26:41;;;;;;;3.97;2.27;;;8.40;90.60;;;;;;5013665;28;20689;-81
2023/01/18 12:29:26;;;;;;;3.60;1.70;;;8.30;99.90;;;;;;5018999;28;20183;-83
2023/01/18 12:32:19;;;;;;;2.70;1.27;;;7.50;94.00;;;;;;5031618;28;20179;-83
2023/01/18 12:35:07;;;;;;;1.60;1.40;;;6.70;95.30;;;;;;5001120;28;20203;-82
2023/01/18 12:37:51;;;;;;;3.53;1.53;;;6.20;96.60;;;;;;5004541;28;20220;-82
2023/01/18 12:40:35;;;;;;;2.27;1.80;;;5.60;99.30;;;;;;5008059;28;20220;-82
2023/01/18 12:43:06;;;;;;;3.50;1.90;;;5.10;99.90;;;;;;5018309;28;20203;-82
2023/01/18 12:45:39;;;;;;;1.77;1.33;;;4.80;99.90;;;;;;5001174;28;20183;-81
2023/01/18 12:48:20;;;;;;;3.20;1.33;;;4.50;99.90;;;;;;5019730;28;20650;-81
2023/01/18 12:50:48;;;;;;;2.73;1.50;;;4.60;99.90;;;;;;5000873;28;20207;-82
2023/01/18 12:53:31;;;;;;;3.03;1.40;;;4.60;99.90;;;;;;5000461;28;20229;-82
2023/01/18 12:56:08;;;;;;;4.17;1.50;;;4.70;99.90;;;;;;5001040;28;20581;-82
2023/01/18 12:58:34;;;;;;;2.83;1.40;;;4.70;99.90;;;;;;5001019;28;20265;-83
2023/01/18 13:01:04;;;;;;;2.77;1.40;;;4.70;99.90;;;;;;5020049;28;20191;-82
2023/01/18 13:03:43;;;;;;;3.63;1.40;;;4.70;99.90;;;;;;5004111;28;20246;-82
2023/01/18 13:06:10;;;;;;;3.10;1.53;;;4.70;99.90;;;;;;5004993;28;20273;-82
2023/01/18 13:08:52;;;;;;;2.23;1.63;;;4.70;99.90;;;;;;5024680;28;20201;-82
2023/01/18 13:11:28;;;;;;;1.80;1.47;;;4.80;99.90;;;;;;5007336;28;20175;-82
2023/01/18 13:14:32;;;;;;;3.10;1.57;;;4.90;99.90;;;;;;5030535;22;20216;-82
2023/01/18 13:17:09;;;;;;;2.30;1.40;;;4.80;99.90;;;;;;5010491;28;20178;-82
2023/01/18 13:19:53;;;;;;;1.47;1.20;;;5.10;99.90;;;;;;5006903;28;20202;-82
2023/01/18 13:22:48;;;;;;;2.77;1.17;;;5.10;98.90;;;;;;5003825;28;20170;-82
2023/01/18 13:25:34;;;;;;;4.10;1.53;;;5.10;99.20;;;;;;5009117;28;20202;-82
2023/01/18 13:28:13;;;;;;;2.00;1.40;;;5.10;99.90;;;;;;5015153;28;20549;-82
2023/01/18 13:30:59;;;;;;;34.63;20.60;;;5.00;99.00;;;;;;5015189;28;20201;-82
2023/01/18 13:33:31;;;;;;;3.20;1.83;;;4.90;99.90;;;;;;5032916;28;20177;-82
2023/01/18 13:36:06;;;;;;;10.33;3.77;;;4.90;99.30;;;;;;5032476;28;20669;-85
2023/01/18 13:38:37;;;;;;;5.87;2.90;;;4.70;99.90;;;;;;5014883;28;20180;-82
2023/01/18 13:41:05;;;;;;;5.90;3.63;;;4.40;99.90;;;;;;5032655;28;20170;-85
2023/01/18 13:43:34;;;;;;;5.83;4.23;;;4.30;99.90;;;;;;5032706;28;20224;-83